THM YCCY-YCNY
Flight info
| Callsign | THM |
|---|---|
| Flight time | 1h 22m |
| Altitude | 2500 |
| Route | YBKW YLOR YGDS |
| Aircraft | BE36/L-SDFG/C |
Departure
| Time | 2026-04-24 08:43 |
|---|---|
| Airport | Cloncurry Airport (YCCY) |
Arrival
| Time | 2026-04-24 10:05 |
|---|---|
| Airport | Century Mine Airport (YCNY) |
| Time | Latitude | Longitude | Altitude | Speed | Heading |
|---|---|---|---|---|---|
| 2026-04-24 07:42 | -20.66810 | 140.50737 | 610 ft | 0 kts | 328° |
| 2026-04-24 08:38 | -20.66810 | 140.50736 | 608 ft | 0 kts | 328° |
| 2026-04-24 08:38 | -20.66803 | 140.50712 | 622 ft | 12 kts | 224° |
| 2026-04-24 08:38 | -20.66774 | 140.50659 | 619 ft | 14 kts | 329° |
| 2026-04-24 08:39 | -20.66722 | 140.50660 | 622 ft | 11 kts | 59° |
| 2026-04-24 08:39 | -20.66685 | 140.50751 | 618 ft | 18 kts | 67° |
| 2026-04-24 08:39 | -20.66619 | 140.50773 | 615 ft | 17 kts | 305° |
| 2026-04-24 08:39 | -20.66526 | 140.50652 | 616 ft | 24 kts | 307° |
| 2026-04-24 08:40 | -20.66413 | 140.50490 | 625 ft | 30 kts | 306° |
| 2026-04-24 08:40 | -20.66323 | 140.50340 | 617 ft | 14 kts | 285° |
| 2026-04-24 08:40 | -20.66309 | 140.50353 | 626 ft | 0 kts | 129° |
| 2026-04-24 08:42 | -20.66312 | 140.50358 | 627 ft | 11 kts | 126° |
| 2026-04-24 08:42 | -20.66511 | 140.50628 | 618 ft | 77 kts | 129° |
| 2026-04-24 08:42 | -20.66909 | 140.51163 | 754 ft | 100 kts | 127° |
| 2026-04-24 08:42 | -20.67367 | 140.51788 | 1072 ft | 109 kts | 123° |
| 2026-04-24 08:43 | -20.67850 | 140.52417 | 1401 ft | 109 kts | 129° |
| 2026-04-24 08:43 | -20.68259 | 140.53076 | 1708 ft | 103 kts | 110° |
| 2026-04-24 08:43 | -20.68287 | 140.53800 | 2066 ft | 97 kts | 79° |
| 2026-04-24 08:43 | -20.67890 | 140.54432 | 2258 ft | 115 kts | 51° |
| 2026-04-24 08:44 | -20.67092 | 140.54782 | 2427 ft | 137 kts | 13° |
| 2026-04-24 08:44 | -20.66094 | 140.54648 | 2612 ft | 147 kts | 354° |
| 2026-04-24 08:44 | -20.65153 | 140.54315 | 2910 ft | 144 kts | 345° |
| 2026-04-24 08:44 | -20.64229 | 140.53763 | 3024 ft | 155 kts | 330° |
| 2026-04-24 08:45 | -20.63349 | 140.53057 | 3039 ft | 168 kts | 329° |
| 2026-04-24 08:45 | -20.62396 | 140.52284 | 3098 ft | 175 kts | 327° |
| 2026-04-24 08:45 | -20.61436 | 140.51473 | 3120 ft | 179 kts | 328° |
| 2026-04-24 08:45 | -20.60431 | 140.50648 | 3112 ft | 184 kts | 327° |
| 2026-04-24 08:46 | -20.59409 | 140.49820 | 3102 ft | 184 kts | 327° |
| 2026-04-24 08:46 | -20.58379 | 140.49001 | 3101 ft | 185 kts | 327° |
| 2026-04-24 08:46 | -20.57338 | 140.48195 | 3114 ft | 185 kts | 328° |
| 2026-04-24 08:46 | -20.56297 | 140.47385 | 3098 ft | 186 kts | 329° |
| 2026-04-24 08:47 | -20.55286 | 140.46551 | 3109 ft | 184 kts | 327° |
| 2026-04-24 08:47 | -20.54268 | 140.45704 | 3117 ft | 187 kts | 327° |
| 2026-04-24 08:47 | -20.53277 | 140.44791 | 3105 ft | 188 kts | 320° |
| 2026-04-24 08:47 | -20.52375 | 140.43771 | 3106 ft | 189 kts | 316° |
| 2026-04-24 08:48 | -20.51471 | 140.42766 | 3100 ft | 187 kts | 316° |
| 2026-04-24 08:48 | -20.50573 | 140.41769 | 3097 ft | 185 kts | 316° |
| 2026-04-24 08:48 | -20.49687 | 140.40775 | 3096 ft | 186 kts | 316° |
| 2026-04-24 08:48 | -20.48801 | 140.39780 | 3091 ft | 185 kts | 317° |
| 2026-04-24 08:49 | -20.47933 | 140.38794 | 3092 ft | 184 kts | 317° |
| 2026-04-24 08:49 | -20.47062 | 140.37787 | 3104 ft | 183 kts | 316° |
| 2026-04-24 08:49 | -20.46196 | 140.36792 | 3042 ft | 188 kts | 316° |
| 2026-04-24 08:49 | -20.45297 | 140.35768 | 2972 ft | 190 kts | 316° |
| 2026-04-24 08:50 | -20.44372 | 140.34753 | 2892 ft | 190 kts | 322° |
| 2026-04-24 08:50 | -20.43350 | 140.33853 | 2828 ft | 192 kts | 326° |
| 2026-04-24 08:50 | -20.42319 | 140.32965 | 2754 ft | 190 kts | 325° |
| 2026-04-24 08:50 | -20.41288 | 140.32084 | 2689 ft | 191 kts | 325° |
| 2026-04-24 08:51 | -20.40230 | 140.31222 | 2622 ft | 192 kts | 329° |
| 2026-04-24 08:51 | -20.39119 | 140.30410 | 2534 ft | 193 kts | 330° |
| 2026-04-24 08:51 | -20.38018 | 140.29629 | 2527 ft | 190 kts | 331° |
| 2026-04-24 08:51 | -20.36928 | 140.28870 | 2522 ft | 184 kts | 335° |
| 2026-04-24 08:52 | -20.35830 | 140.28202 | 2524 ft | 180 kts | 336° |
| 2026-04-24 08:52 | -20.34742 | 140.27548 | 2527 ft | 180 kts | 336° |
| 2026-04-24 08:52 | -20.33631 | 140.26902 | 2517 ft | 183 kts | 336° |
| 2026-04-24 08:52 | -20.32498 | 140.26275 | 2529 ft | 184 kts | 340° |
| 2026-04-24 08:53 | -20.31347 | 140.25691 | 2526 ft | 182 kts | 341° |
| 2026-04-24 08:53 | -20.30194 | 140.25165 | 2526 ft | 179 kts | 342° |
| 2026-04-24 08:53 | -20.29047 | 140.24700 | 2529 ft | 174 kts | 348° |
| 2026-04-24 08:53 | -20.27912 | 140.24305 | 2521 ft | 169 kts | 350° |
| 2026-04-24 08:54 | -20.26783 | 140.23951 | 2516 ft | 168 kts | 350° |
| 2026-04-24 08:54 | -20.25643 | 140.23740 | 2532 ft | 166 kts | 1° |
| 2026-04-24 08:54 | -20.24500 | 140.23638 | 2524 ft | 164 kts | 7° |
| 2026-04-24 08:54 | -20.23382 | 140.23640 | 2523 ft | 158 kts | 9° |
| 2026-04-24 08:55 | -20.22269 | 140.23634 | 2531 ft | 163 kts | 8° |
| 2026-04-24 08:55 | -20.21139 | 140.23612 | 2528 ft | 162 kts | 7° |
| 2026-04-24 08:55 | -20.20008 | 140.23609 | 2539 ft | 164 kts | 9° |
| 2026-04-24 08:55 | -20.18863 | 140.23624 | 2521 ft | 164 kts | 8° |
| 2026-04-24 08:56 | -20.17714 | 140.23632 | 2538 ft | 167 kts | 8° |
| 2026-04-24 08:56 | -20.16538 | 140.23658 | 2523 ft | 169 kts | 9° |
| 2026-04-24 08:56 | -20.15373 | 140.23677 | 2527 ft | 166 kts | 8° |
| 2026-04-24 08:56 | -20.14213 | 140.23697 | 2525 ft | 166 kts | 8° |
| 2026-04-24 08:57 | -20.13056 | 140.23729 | 2528 ft | 167 kts | 9° |
| 2026-04-24 08:57 | -20.11895 | 140.23743 | 2531 ft | 166 kts | 8° |
| 2026-04-24 08:57 | -20.10730 | 140.23766 | 2527 ft | 168 kts | 8° |
| 2026-04-24 08:57 | -20.09563 | 140.23804 | 2523 ft | 168 kts | 9° |
| 2026-04-24 08:58 | -20.08400 | 140.23823 | 2527 ft | 168 kts | 8° |
| 2026-04-24 08:58 | -20.07226 | 140.23835 | 2526 ft | 167 kts | 9° |
| 2026-04-24 08:58 | -20.06058 | 140.23851 | 2528 ft | 169 kts | 8° |
| 2026-04-24 08:58 | -20.04875 | 140.23862 | 2528 ft | 171 kts | 8° |
| 2026-04-24 08:59 | -20.03690 | 140.23875 | 2527 ft | 170 kts | 9° |
| 2026-04-24 08:59 | -20.02528 | 140.23885 | 2532 ft | 170 kts | 8° |
| 2026-04-24 08:59 | -20.01342 | 140.23905 | 2530 ft | 171 kts | 9° |
| 2026-04-24 08:59 | -20.00142 | 140.23922 | 2525 ft | 169 kts | 8° |
| 2026-04-24 09:00 | -19.98959 | 140.23944 | 2519 ft | 170 kts | 8° |
| 2026-04-24 09:00 | -19.97784 | 140.23992 | 2525 ft | 169 kts | 9° |
| 2026-04-24 09:00 | -19.96623 | 140.24014 | 2524 ft | 169 kts | 8° |
| 2026-04-24 09:00 | -19.95446 | 140.24032 | 2520 ft | 168 kts | 8° |
| 2026-04-24 09:01 | -19.94288 | 140.24057 | 2520 ft | 166 kts | 8° |
| 2026-04-24 09:01 | -19.93129 | 140.24074 | 2522 ft | 167 kts | 8° |
| 2026-04-24 09:01 | -19.91964 | 140.24091 | 2516 ft | 167 kts | 9° |
| 2026-04-24 09:01 | -19.90798 | 140.24104 | 2516 ft | 168 kts | 8° |
| 2026-04-24 09:02 | -19.89621 | 140.24116 | 2516 ft | 170 kts | 8° |
| 2026-04-24 09:02 | -19.88443 | 140.24137 | 2517 ft | 169 kts | 8° |
| 2026-04-24 09:02 | -19.87272 | 140.24157 | 2525 ft | 169 kts | 8° |
| 2026-04-24 09:02 | -19.86102 | 140.24168 | 2518 ft | 167 kts | 8° |
| 2026-04-24 09:03 | -19.84940 | 140.24181 | 2522 ft | 168 kts | 8° |
| 2026-04-24 09:03 | -19.83768 | 140.24202 | 2521 ft | 168 kts | 8° |
| 2026-04-24 09:03 | -19.82606 | 140.24225 | 2521 ft | 166 kts | 8° |
| 2026-04-24 09:03 | -19.81441 | 140.24247 | 2518 ft | 170 kts | 8° |
| 2026-04-24 09:04 | -19.80261 | 140.24265 | 2508 ft | 168 kts | 9° |
| 2026-04-24 09:04 | -19.79106 | 140.24261 | 2510 ft | 165 kts | 7° |
| 2026-04-24 09:04 | -19.77954 | 140.24275 | 2522 ft | 168 kts | 8° |
| 2026-04-24 09:04 | -19.76779 | 140.24308 | 2517 ft | 170 kts | 9° |
| 2026-04-24 09:05 | -19.75586 | 140.24311 | 2520 ft | 171 kts | 8° |
| 2026-04-24 09:05 | -19.74405 | 140.24327 | 2516 ft | 168 kts | 10° |
| 2026-04-24 09:05 | -19.73244 | 140.24402 | 2514 ft | 168 kts | 11° |
| 2026-04-24 09:05 | -19.72064 | 140.24482 | 2516 ft | 171 kts | 11° |
| 2026-04-24 09:06 | -19.70881 | 140.24584 | 2509 ft | 170 kts | 12° |
| 2026-04-24 09:06 | -19.69722 | 140.24682 | 2505 ft | 169 kts | 12° |
| 2026-04-24 09:06 | -19.68533 | 140.24776 | 2514 ft | 169 kts | 10° |
| 2026-04-24 09:06 | -19.67367 | 140.24889 | 2512 ft | 167 kts | 11° |
| 2026-04-24 09:07 | -19.66205 | 140.25004 | 2515 ft | 169 kts | 12° |
| 2026-04-24 09:07 | -19.65039 | 140.25088 | 2517 ft | 171 kts | 11° |
| 2026-04-24 09:07 | -19.62673 | 140.25388 | 2504 ft | 170 kts | 15° |
| 2026-04-24 09:08 | -19.61494 | 140.25549 | 2514 ft | 172 kts | 14° |
| 2026-04-24 09:08 | -19.60306 | 140.25719 | 2509 ft | 172 kts | 15° |
| 2026-04-24 09:08 | -19.59113 | 140.25899 | 2512 ft | 174 kts | 14° |
| 2026-04-24 09:08 | -19.57928 | 140.26131 | 2503 ft | 173 kts | 18° |
| 2026-04-24 09:09 | -19.56750 | 140.26398 | 2510 ft | 174 kts | 18° |
| 2026-04-24 09:09 | -19.55572 | 140.26666 | 2504 ft | 172 kts | 19° |
| 2026-04-24 09:09 | -19.54407 | 140.26907 | 2497 ft | 169 kts | 18° |
| 2026-04-24 09:09 | -19.53268 | 140.27139 | 2499 ft | 167 kts | 18° |
| 2026-04-24 09:10 | -19.52122 | 140.27395 | 2506 ft | 170 kts | 18° |
| 2026-04-24 09:10 | -19.50970 | 140.27652 | 2500 ft | 169 kts | 19° |
| 2026-04-24 09:10 | -19.49806 | 140.27883 | 2506 ft | 171 kts | 19° |
| 2026-04-24 09:10 | -19.48643 | 140.28114 | 2501 ft | 169 kts | 18° |
| 2026-04-24 09:11 | -19.47497 | 140.28358 | 2498 ft | 167 kts | 18° |
| 2026-04-24 09:11 | -19.46365 | 140.28585 | 2494 ft | 165 kts | 18° |
| 2026-04-24 09:11 | -19.45223 | 140.28798 | 2493 ft | 167 kts | 17° |
| 2026-04-24 09:11 | -19.44089 | 140.29033 | 2498 ft | 167 kts | 18° |
| 2026-04-24 09:12 | -19.42946 | 140.29277 | 2501 ft | 168 kts | 18° |
| 2026-04-24 09:12 | -19.41812 | 140.29511 | 2493 ft | 166 kts | 19° |
| 2026-04-24 09:12 | -19.40671 | 140.29740 | 2500 ft | 163 kts | 19° |
| 2026-04-24 09:12 | -19.39574 | 140.29966 | 2496 ft | 163 kts | 18° |
| 2026-04-24 09:13 | -19.38459 | 140.30218 | 2496 ft | 165 kts | 21° |
| 2026-04-24 09:13 | -19.37328 | 140.30515 | 2502 ft | 168 kts | 21° |
| 2026-04-24 09:13 | -19.36187 | 140.30828 | 2457 ft | 172 kts | 22° |
| 2026-04-24 09:13 | -19.35025 | 140.31132 | 2367 ft | 172 kts | 21° |
| 2026-04-24 09:14 | -19.33850 | 140.31440 | 2266 ft | 174 kts | 21° |
| 2026-04-24 09:14 | -19.32666 | 140.31738 | 2173 ft | 175 kts | 19° |
| 2026-04-24 09:14 | -19.31465 | 140.31998 | 2070 ft | 177 kts | 18° |
| 2026-04-24 09:14 | -19.30270 | 140.32260 | 1974 ft | 170 kts | 18° |
| 2026-04-24 09:15 | -19.29143 | 140.32517 | 1884 ft | 161 kts | 20° |
| 2026-04-24 09:15 | -19.28079 | 140.32867 | 1686 ft | 161 kts | 26° |
| 2026-04-24 09:15 | -19.27055 | 140.33270 | 1580 ft | 142 kts | 29° |
| 2026-04-24 09:15 | -19.26217 | 140.33632 | 1440 ft | 122 kts | 34° |
| 2026-04-24 09:16 | -19.25484 | 140.33992 | 1250 ft | 109 kts | 31° |
| 2026-04-24 09:16 | -19.24808 | 140.34293 | 1055 ft | 104 kts | 26° |
| 2026-04-24 09:16 | -19.24108 | 140.34567 | 874 ft | 108 kts | 19° |
| 2026-04-24 09:16 | -19.23442 | 140.34774 | 683 ft | 93 kts | 25° |
| 2026-04-24 09:17 | -19.22871 | 140.34997 | 359 ft | 86 kts | 19° |
| 2026-04-24 09:17 | -19.22385 | 140.35183 | 256 ft | 52 kts | 10° |
| 2026-04-24 09:17 | -19.21952 | 140.35345 | 264 ft | 91 kts | 19° |
| 2026-04-24 09:17 | -19.21344 | 140.35585 | 546 ft | 96 kts | 31° |
| 2026-04-24 09:18 | -19.20713 | 140.35922 | 777 ft | 103 kts | 34° |
| 2026-04-24 09:18 | -19.20064 | 140.36270 | 1046 ft | 110 kts | 19° |
| 2026-04-24 09:18 | -19.19293 | 140.36091 | 1250 ft | 128 kts | 324° |
| 2026-04-24 09:18 | -19.18679 | 140.35344 | 1446 ft | 141 kts | 301° |
| 2026-04-24 09:19 | -19.18178 | 140.34448 | 1744 ft | 140 kts | 296° |
| 2026-04-24 09:19 | -19.17716 | 140.33566 | 2103 ft | 134 kts | 299° |
| 2026-04-24 09:19 | -19.17234 | 140.32690 | 2326 ft | 141 kts | 296° |
| 2026-04-24 09:19 | -19.16764 | 140.31732 | 2484 ft | 155 kts | 297° |
| 2026-04-24 09:20 | -19.16235 | 140.30653 | 2500 ft | 175 kts | 296° |
| 2026-04-24 09:20 | -19.15671 | 140.29493 | 2502 ft | 178 kts | 296° |
| 2026-04-24 09:20 | -19.15098 | 140.28311 | 2499 ft | 181 kts | 296° |
| 2026-04-24 09:20 | -19.14523 | 140.27123 | 2500 ft | 183 kts | 296° |
| 2026-04-24 09:21 | -19.13942 | 140.25926 | 2497 ft | 183 kts | 296° |
| 2026-04-24 09:21 | -19.13359 | 140.24724 | 2486 ft | 183 kts | 296° |
| 2026-04-24 09:21 | -19.12776 | 140.23532 | 2503 ft | 183 kts | 296° |
| 2026-04-24 09:21 | -19.12195 | 140.22342 | 2495 ft | 181 kts | 296° |
| 2026-04-24 09:22 | -19.11597 | 140.21144 | 2468 ft | 186 kts | 297° |
| 2026-04-24 09:22 | -19.10981 | 140.19913 | 2333 ft | 189 kts | 295° |
| 2026-04-24 09:22 | -19.10389 | 140.18619 | 2108 ft | 197 kts | 293° |
| 2026-04-24 09:22 | -19.09870 | 140.17273 | 1934 ft | 197 kts | 286° |
| 2026-04-24 09:23 | -19.09465 | 140.15918 | 1910 ft | 189 kts | 282° |
| 2026-04-24 09:23 | -19.09064 | 140.14600 | 1882 ft | 186 kts | 287° |
| 2026-04-24 09:23 | -19.08630 | 140.13312 | 1804 ft | 185 kts | 290° |
| 2026-04-24 09:23 | -19.08143 | 140.12095 | 1886 ft | 178 kts | 291° |
| 2026-04-24 09:24 | -19.07637 | 140.10901 | 1907 ft | 176 kts | 294° |
| 2026-04-24 09:24 | -19.07125 | 140.09751 | 1955 ft | 175 kts | 292° |
| 2026-04-24 09:24 | -19.06597 | 140.08583 | 1944 ft | 177 kts | 292° |
| 2026-04-24 09:24 | -19.06094 | 140.07395 | 1976 ft | 176 kts | 291° |
| 2026-04-24 09:25 | -19.05607 | 140.06205 | 1996 ft | 177 kts | 290° |
| 2026-04-24 09:25 | -19.05167 | 140.04980 | 1949 ft | 180 kts | 288° |
| 2026-04-24 09:25 | -19.04769 | 140.03742 | 1941 ft | 177 kts | 285° |
| 2026-04-24 09:25 | -19.04411 | 140.02503 | 1947 ft | 177 kts | 282° |
| 2026-04-24 09:26 | -19.04069 | 140.01264 | 2025 ft | 177 kts | 287° |
| 2026-04-24 09:26 | -19.03600 | 140.00042 | 1976 ft | 184 kts | 291° |
| 2026-04-24 09:26 | -19.03084 | 139.98810 | 2047 ft | 180 kts | 291° |
| 2026-04-24 09:26 | -19.02614 | 139.97589 | 2125 ft | 179 kts | 290° |
| 2026-04-24 09:27 | -19.02134 | 139.96365 | 2170 ft | 180 kts | 291° |
| 2026-04-24 09:27 | -19.01642 | 139.95123 | 1979 ft | 191 kts | 289° |
| 2026-04-24 09:27 | -19.01318 | 139.94254 | 1836 ft | 191 kts | 289° |
| 2026-04-24 09:27 | -19.00776 | 139.93009 | 1677 ft | 180 kts | 296° |
| 2026-04-24 09:28 | -19.00158 | 139.91888 | 1433 ft | 178 kts | 302° |
| 2026-04-24 09:28 | -18.99537 | 139.90792 | 1364 ft | 168 kts | 300° |
| 2026-04-24 09:28 | -18.98968 | 139.89796 | 1400 ft | 147 kts | 302° |
| 2026-04-24 09:28 | -18.98411 | 139.88915 | 1318 ft | 142 kts | 305° |
| 2026-04-24 09:29 | -18.97930 | 139.88083 | 1343 ft | 123 kts | 280° |
| 2026-04-24 09:29 | -18.98195 | 139.87396 | 1308 ft | 99 kts | 193° |
| 2026-04-24 09:29 | -18.98839 | 139.87233 | 1215 ft | 93 kts | 176° |
| 2026-04-24 09:29 | -18.99419 | 139.87439 | 1033 ft | 82 kts | 144° |
| 2026-04-24 09:30 | -18.99768 | 139.87889 | 814 ft | 80 kts | 123° |
| 2026-04-24 09:30 | -19.00131 | 139.88567 | 563 ft | 79 kts | 117° |
| 2026-04-24 09:30 | -19.00251 | 139.88922 | 455 ft | 75 kts | 121° |
| 2026-04-24 09:30 | -19.00461 | 139.89441 | 267 ft | 79 kts | 115° |
| 2026-04-24 09:31 | -19.00629 | 139.89878 | 196 ft | 58 kts | 110° |
| 2026-04-24 09:31 | -19.00799 | 139.90362 | 333 ft | 77 kts | 115° |
| 2026-04-24 09:31 | -19.01039 | 139.90907 | 653 ft | 82 kts | 117° |
| 2026-04-24 09:31 | -19.01162 | 139.91555 | 893 ft | 99 kts | 82° |
| 2026-04-24 09:32 | -19.00645 | 139.92043 | 1137 ft | 115 kts | 10° |
| 2026-04-24 09:32 | -18.99903 | 139.91718 | 1350 ft | 123 kts | 315° |
| 2026-04-24 09:32 | -18.99431 | 139.90967 | 1638 ft | 125 kts | 297° |
| 2026-04-24 09:32 | -18.98989 | 139.90193 | 1940 ft | 122 kts | 296° |
| 2026-04-24 09:33 | -18.98571 | 139.89392 | 2202 ft | 125 kts | 296° |
| 2026-04-24 09:33 | -18.98152 | 139.88575 | 2457 ft | 128 kts | 296° |
| 2026-04-24 09:33 | -18.97698 | 139.87668 | 2501 ft | 150 kts | 296° |
| 2026-04-24 09:33 | -18.97197 | 139.86659 | 2497 ft | 160 kts | 296° |
| 2026-04-24 09:34 | -18.96675 | 139.85607 | 2505 ft | 163 kts | 296° |
| 2026-04-24 09:34 | -18.96147 | 139.84539 | 2491 ft | 165 kts | 296° |
| 2026-04-24 09:34 | -18.95632 | 139.83500 | 2487 ft | 158 kts | 296° |
| 2026-04-24 09:34 | -18.95124 | 139.82479 | 2492 ft | 159 kts | 296° |
| 2026-04-24 09:35 | -18.94606 | 139.81431 | 2484 ft | 164 kts | 296° |
| 2026-04-24 09:35 | -18.94066 | 139.80341 | 2497 ft | 170 kts | 296° |
| 2026-04-24 09:35 | -18.93517 | 139.79222 | 2488 ft | 172 kts | 296° |
| 2026-04-24 09:35 | -18.92933 | 139.78105 | 2488 ft | 175 kts | 299° |
| 2026-04-24 09:36 | -18.92293 | 139.76996 | 2495 ft | 180 kts | 301° |
| 2026-04-24 09:36 | -18.91628 | 139.75868 | 2485 ft | 182 kts | 301° |
| 2026-04-24 09:36 | -18.90965 | 139.74739 | 2493 ft | 180 kts | 301° |
| 2026-04-24 09:36 | -18.90310 | 139.73617 | 2501 ft | 180 kts | 301° |
| 2026-04-24 09:37 | -18.89648 | 139.72489 | 2496 ft | 182 kts | 301° |
| 2026-04-24 09:37 | -18.88984 | 139.71347 | 2492 ft | 182 kts | 301° |
| 2026-04-24 09:37 | -18.88332 | 139.70223 | 2492 ft | 179 kts | 301° |
| 2026-04-24 09:37 | -18.87678 | 139.69097 | 2497 ft | 182 kts | 301° |
| 2026-04-24 09:38 | -18.87016 | 139.67948 | 2500 ft | 184 kts | 301° |
| 2026-04-24 09:38 | -18.86357 | 139.66805 | 2494 ft | 181 kts | 301° |
| 2026-04-24 09:38 | -18.85706 | 139.65675 | 2486 ft | 179 kts | 301° |
| 2026-04-24 09:38 | -18.85064 | 139.64556 | 2493 ft | 180 kts | 301° |
| 2026-04-24 09:39 | -18.84414 | 139.63431 | 2482 ft | 177 kts | 301° |
| 2026-04-24 09:39 | -18.83770 | 139.62312 | 2488 ft | 179 kts | 301° |
| 2026-04-24 09:39 | -18.83122 | 139.61185 | 2491 ft | 180 kts | 301° |
| 2026-04-24 09:39 | -18.82469 | 139.60054 | 2496 ft | 180 kts | 301° |
| 2026-04-24 09:40 | -18.81820 | 139.58922 | 2489 ft | 182 kts | 301° |
| 2026-04-24 09:40 | -18.81167 | 139.57786 | 2483 ft | 180 kts | 301° |
| 2026-04-24 09:40 | -18.80519 | 139.56656 | 2484 ft | 180 kts | 301° |
| 2026-04-24 09:40 | -18.79874 | 139.55532 | 2489 ft | 179 kts | 301° |
| 2026-04-24 09:41 | -18.79230 | 139.54406 | 2488 ft | 179 kts | 301° |
| 2026-04-24 09:41 | -18.78590 | 139.53295 | 2488 ft | 180 kts | 301° |
| 2026-04-24 09:41 | -18.77938 | 139.52166 | 2488 ft | 180 kts | 301° |
| 2026-04-24 09:41 | -18.77273 | 139.51017 | 2487 ft | 182 kts | 301° |
| 2026-04-24 09:42 | -18.76625 | 139.49892 | 2490 ft | 182 kts | 301° |
| 2026-04-24 09:42 | -18.75968 | 139.48754 | 2490 ft | 182 kts | 301° |
| 2026-04-24 09:42 | -18.75311 | 139.47616 | 2486 ft | 181 kts | 301° |
| 2026-04-24 09:42 | -18.74661 | 139.46470 | 2487 ft | 177 kts | 300° |
| 2026-04-24 09:43 | -18.74061 | 139.45350 | 2494 ft | 180 kts | 299° |
| 2026-04-24 09:43 | -18.73444 | 139.44205 | 2495 ft | 179 kts | 299° |
| 2026-04-24 09:43 | -18.72828 | 139.43058 | 2492 ft | 180 kts | 299° |
| 2026-04-24 09:43 | -18.72215 | 139.41912 | 2494 ft | 180 kts | 299° |
| 2026-04-24 09:44 | -18.71595 | 139.40754 | 2489 ft | 181 kts | 299° |
| 2026-04-24 09:44 | -18.70981 | 139.39604 | 2455 ft | 181 kts | 299° |
| 2026-04-24 09:44 | -18.70357 | 139.38438 | 2387 ft | 182 kts | 299° |
| 2026-04-24 09:44 | -18.69729 | 139.37265 | 2303 ft | 184 kts | 299° |
| 2026-04-24 09:45 | -18.69102 | 139.36091 | 2243 ft | 184 kts | 299° |
| 2026-04-24 09:45 | -18.68474 | 139.34918 | 2162 ft | 184 kts | 299° |
| 2026-04-24 09:45 | -18.67866 | 139.33721 | 2062 ft | 187 kts | 297° |
| 2026-04-24 09:45 | -18.67256 | 139.32499 | 1906 ft | 189 kts | 297° |
| 2026-04-24 09:46 | -18.66652 | 139.31298 | 1727 ft | 182 kts | 297° |
| 2026-04-24 09:46 | -18.66059 | 139.30116 | 1423 ft | 180 kts | 295° |
| 2026-04-24 09:46 | -18.65548 | 139.29001 | 1452 ft | 159 kts | 293° |
| 2026-04-24 09:46 | -18.65127 | 139.27955 | 1446 ft | 152 kts | 290° |
| 2026-04-24 09:47 | -18.64737 | 139.26922 | 1406 ft | 151 kts | 292° |
| 2026-04-24 09:47 | -18.64380 | 139.25900 | 1384 ft | 148 kts | 288° |
| 2026-04-24 09:47 | -18.63943 | 139.24914 | 1250 ft | 153 kts | 315° |
| 2026-04-24 09:47 | -18.63026 | 139.24539 | 1257 ft | 137 kts | 10° |
| 2026-04-24 09:48 | -18.62124 | 139.24722 | 1300 ft | 128 kts | 24° |
| 2026-04-24 09:48 | -18.61290 | 139.25000 | 1272 ft | 128 kts | 19° |
| 2026-04-24 09:48 | -18.60397 | 139.25001 | 1340 ft | 123 kts | 350° |
| 2026-04-24 09:48 | -18.59868 | 139.24357 | 1268 ft | 126 kts | 275° |
| 2026-04-24 09:49 | -18.59926 | 139.23440 | 1153 ft | 118 kts | 245° |
| 2026-04-24 09:49 | -18.60444 | 139.23026 | 928 ft | 94 kts | 181° |
| 2026-04-24 09:49 | -18.61089 | 139.23050 | 609 ft | 93 kts | 168° |
| 2026-04-24 09:49 | -18.61694 | 139.23159 | 409 ft | 86 kts | 168° |
| 2026-04-24 09:50 | -18.62242 | 139.23249 | 183 ft | 68 kts | 164° |
| 2026-04-24 09:50 | -18.62629 | 139.23322 | 170 ft | 67 kts | 172° |
| 2026-04-24 09:50 | -18.63188 | 139.23375 | 380 ft | 86 kts | 181° |
| 2026-04-24 09:50 | -18.63865 | 139.23391 | 581 ft | 106 kts | 172° |
| 2026-04-24 09:51 | -18.64535 | 139.23511 | 1061 ft | 97 kts | 166° |
| 2026-04-24 09:51 | -18.65237 | 139.23621 | 1297 ft | 104 kts | 168° |
| 2026-04-24 09:51 | -18.65884 | 139.23875 | 1622 ft | 100 kts | 135° |
| 2026-04-24 09:51 | -18.66124 | 139.24552 | 1893 ft | 105 kts | 89° |
| 2026-04-24 09:52 | -18.65738 | 139.25208 | 2247 ft | 114 kts | 46° |
| 2026-04-24 09:52 | -18.64956 | 139.25503 | 2541 ft | 128 kts | 13° |
| 2026-04-24 09:52 | -18.64035 | 139.25325 | 2764 ft | 141 kts | 339° |
| 2026-04-24 09:52 | -18.63255 | 139.24649 | 2882 ft | 160 kts | 309° |
| 2026-04-24 09:53 | -18.62799 | 139.23513 | 2798 ft | 179 kts | 280° |
| 2026-04-24 09:53 | -18.62680 | 139.22172 | 2637 ft | 187 kts | 269° |
| 2026-04-24 09:53 | -18.62652 | 139.20788 | 2536 ft | 187 kts | 269° |
| 2026-04-24 09:53 | -18.62648 | 139.19446 | 2527 ft | 180 kts | 263° |
| 2026-04-24 09:54 | -18.62763 | 139.18137 | 2539 ft | 180 kts | 261° |
| 2026-04-24 09:54 | -18.62886 | 139.16831 | 2534 ft | 178 kts | 260° |
| 2026-04-24 09:54 | -18.63067 | 139.15552 | 2536 ft | 175 kts | 257° |
| 2026-04-24 09:54 | -18.63265 | 139.14288 | 2530 ft | 174 kts | 257° |
| 2026-04-24 09:55 | -18.63459 | 139.13033 | 2545 ft | 174 kts | 257° |
| 2026-04-24 09:55 | -18.63693 | 139.11775 | 2545 ft | 176 kts | 254° |
| 2026-04-24 09:55 | -18.63955 | 139.10518 | 2537 ft | 175 kts | 253° |
| 2026-04-24 09:55 | -18.64209 | 139.09262 | 2543 ft | 175 kts | 253° |
| 2026-04-24 09:56 | -18.64465 | 139.08000 | 2545 ft | 177 kts | 254° |
| 2026-04-24 09:56 | -18.64753 | 139.06742 | 2545 ft | 176 kts | 251° |
| 2026-04-24 09:56 | -18.65062 | 139.05496 | 2534 ft | 175 kts | 251° |
| 2026-04-24 09:56 | -18.65374 | 139.04266 | 2542 ft | 174 kts | 251° |
| 2026-04-24 09:57 | -18.65682 | 139.03031 | 2543 ft | 175 kts | 251° |
| 2026-04-24 09:57 | -18.65995 | 139.01781 | 2549 ft | 178 kts | 251° |
| 2026-04-24 09:57 | -18.66310 | 139.00526 | 2542 ft | 176 kts | 251° |
| 2026-04-24 09:57 | -18.66625 | 138.99297 | 2544 ft | 172 kts | 251° |
| 2026-04-24 09:58 | -18.66938 | 138.98072 | 2544 ft | 173 kts | 251° |
| 2026-04-24 09:58 | -18.67246 | 138.96832 | 2544 ft | 176 kts | 252° |
| 2026-04-24 09:58 | -18.67550 | 138.95583 | 2551 ft | 176 kts | 252° |
| 2026-04-24 09:58 | -18.67843 | 138.94337 | 2547 ft | 174 kts | 252° |
| 2026-04-24 09:59 | -18.68137 | 138.93123 | 2547 ft | 174 kts | 252° |
| 2026-04-24 09:59 | -18.68436 | 138.91877 | 2547 ft | 177 kts | 251° |
| 2026-04-24 09:59 | -18.68736 | 138.90628 | 2539 ft | 175 kts | 252° |
| 2026-04-24 09:59 | -18.69034 | 138.89389 | 2546 ft | 176 kts | 251° |
| 2026-04-24 10:00 | -18.69364 | 138.88153 | 2550 ft | 174 kts | 250° |
| 2026-04-24 10:00 | -18.69699 | 138.86924 | 2551 ft | 176 kts | 250° |
| 2026-04-24 10:00 | -18.70034 | 138.85678 | 2545 ft | 177 kts | 250° |
| 2026-04-24 10:00 | -18.70333 | 138.84424 | 2542 ft | 175 kts | 254° |
| 2026-04-24 10:01 | -18.70594 | 138.83172 | 2551 ft | 174 kts | 254° |
| 2026-04-24 10:01 | -18.70849 | 138.81923 | 2539 ft | 175 kts | 254° |
| 2026-04-24 10:01 | -18.71114 | 138.80647 | 2446 ft | 181 kts | 254° |
| 2026-04-24 10:01 | -18.71338 | 138.79328 | 2330 ft | 185 kts | 258° |
| 2026-04-24 10:02 | -18.71534 | 138.77985 | 2211 ft | 186 kts | 258° |
| 2026-04-24 10:02 | -18.71734 | 138.76627 | 2090 ft | 188 kts | 258° |
| 2026-04-24 10:02 | -18.71935 | 138.75269 | 1975 ft | 186 kts | 257° |
| 2026-04-24 10:02 | -18.72129 | 138.73935 | 1844 ft | 181 kts | 258° |
| 2026-04-24 10:03 | -18.72314 | 138.72640 | 1728 ft | 178 kts | 258° |
| 2026-04-24 10:03 | -18.72503 | 138.71360 | 1609 ft | 176 kts | 258° |
| 2026-04-24 10:03 | -18.72696 | 138.70095 | 1519 ft | 167 kts | 255° |
| 2026-04-24 10:03 | -18.72968 | 138.69051 | 1540 ft | 129 kts | 231° |
| 2026-04-24 10:04 | -18.73572 | 138.68814 | 1452 ft | 92 kts | 140° |
| 2026-04-24 10:04 | -18.74046 | 138.69355 | 1163 ft | 105 kts | 134° |
| 2026-04-24 10:04 | -18.74617 | 138.69861 | 853 ft | 105 kts | 138° |
| 2026-04-24 10:04 | -18.75119 | 138.70290 | 572 ft | 85 kts | 142° |
| 2026-04-24 10:05 | -18.75536 | 138.70634 | 417 ft | 61 kts | 140° |
| 2026-04-24 10:05 | -18.75684 | 138.70772 | 410 ft | 6 kts | 183° |
| 2026-04-24 10:05 | -18.75666 | 138.70740 | 417 ft | 11 kts | 333° |
| 2026-04-24 10:05 | -18.75617 | 138.70700 | 416 ft | 13 kts | 321° |
| 2026-04-24 10:06 | -18.75529 | 138.70629 | 416 ft | 18 kts | 326° |
| 2026-04-24 10:06 | -18.75546 | 138.70473 | 412 ft | 10 kts | 157° |
| 2026-04-24 10:06 | -18.75575 | 138.70509 | 413 ft | 4 kts | 65° |
| 2026-04-24 10:07 | -18.75568 | 138.70526 | 415 ft | 4 kts | 65° |
| 2026-04-24 10:07 | -18.75567 | 138.70527 | 415 ft | 0 kts | 62° |